Time;durP1;ratioP1;P1;durP2;ratioP2;P2;SDS_P1;SDS_P2;PMS_P1;PMS_P2;Temp;Humidity;BMP_temperature;BMP_pressure;BME280_temperature;BME280_humidity;BME280_pressure;Samples;Min_cycle;Max_cycle;Signal;HPM_P1;HPM_P2
2022/08/10 00:00:43;;;;;;;6.22;4.37;;;;;;;14.03;66.33;98077.50;1731488;82;25767;-76
2022/08/10 00:03:10;;;;;;;9.98;4.80;;;;;;;14.01;66.31;98085.02;1731426;82;25796;-76
2022/08/10 00:05:36;;;;;;;6.20;4.47;;;;;;;13.99;66.30;98083.07;1731497;82;25723;-76
2022/08/10 00:08:03;;;;;;;6.62;4.33;;;;;;;13.88;66.37;98083.75;1731608;82;27500;-76
2022/08/10 00:10:30;;;;;;;8.55;4.05;;;;;;;13.81;66.35;98081.58;1731469;82;25540;-76
2022/08/10 00:12:57;;;;;;;6.28;4.42;;;;;;;13.74;66.56;98083.50;1731746;82;25822;-75
2022/08/10 00:15:24;;;;;;;6.28;4.28;;;;;;;13.62;66.63;98083.86;1731807;82;25714;-77
2022/08/10 00:17:51;;;;;;;5.87;4.50;;;;;;;13.59;66.82;98088.34;1731945;82;25782;-76
2022/08/10 00:20:17;;;;;;;5.42;3.90;;;;;;;13.53;66.83;98083.23;1731678;82;27319;-77
2022/08/10 00:22:44;;;;;;;8.50;3.92;;;;;;;13.50;66.82;98082.85;1731518;82;25748;-76
2022/08/10 00:25:10;;;;;;;8.13;4.30;;;;;;;13.46;66.93;98081.60;1731788;82;25760;-76
2022/08/10 00:27:37;;;;;;;5.75;5.05;;;;;;;13.45;66.97;98080.77;1731783;82;25728;-77
2022/08/10 00:30:05;;;;;;;7.05;4.20;;;;;;;13.40;67.00;98082.47;1731843;82;25704;-76
2022/08/10 00:32:32;;;;;;;5.30;3.85;;;;;;;13.37;67.04;98084.24;1731595;82;27395;-76
2022/08/10 00:34:58;;;;;;;4.28;3.87;;;;;;;13.33;67.15;98081.95;1731690;82;25652;-76
2022/08/10 00:37:25;;;;;;;8.63;4.17;;;;;;;13.33;67.21;98088.73;1731661;82;25772;-76
2022/08/10 00:39:51;;;;;;;8.60;4.70;;;;;;;13.29;67.20;98088.83;1731731;82;25774;-76
2022/08/10 00:42:18;;;;;;;7.58;4.30;;;;;;;13.28;67.24;98090.42;1731710;82;26345;-77
2022/08/10 00:44:48;;;;;;;8.78;4.40;;;;;;;13.21;67.28;98085.00;1731484;82;27424;-77
2022/08/10 00:47:17;;;;;;;6.78;4.75;;;;;;;13.11;67.26;98083.22;1731726;82;25738;-75
2022/08/10 00:49:43;;;;;;;7.75;4.33;;;;;;;13.05;67.53;98086.75;1731708;82;25695;-76
2022/08/10 00:52:13;;;;;;;7.12;4.40;;;;;;;13.07;67.61;98090.09;1731519;82;25691;-76
2022/08/10 00:54:42;;;;;;;8.60;4.37;;;;;;;13.08;67.55;98090.92;1731793;82;25682;-76
2022/08/10 00:57:10;;;;;;;7.22;4.22;;;;;;;13.06;67.49;98084.36;1731780;82;27349;-76
2022/08/10 00:59:37;;;;;;;4.95;4.17;;;;;;;13.06;67.48;98089.78;1731629;82;25941;-77
2022/08/10 01:02:04;;;;;;;9.13;4.87;;;;;;;13.05;67.51;98090.83;1731704;82;26487;-76
2022/08/10 01:04:31;;;;;;;7.80;4.90;;;;;;;13.04;67.51;98082.93;1731759;82;25675;-76
2022/08/10 01:07:29;;;;;;;7.78;4.50;;;;;;;12.97;67.59;98088.34;1731605;82;25671;-76
2022/08/10 01:10:13;;;;;;;7.17;4.42;;;;;;;12.95;67.68;98082.29;1724415;82;28163;-76
2022/08/10 01:12:50;;;;;;;5.72;4.22;;;;;;;12.93;67.71;98077.59;1730092;82;25720;-75
2022/08/10 01:15:25;;;;;;;9.65;4.50;;;;;;;12.91;67.77;98082.42;1728510;82;25882;-76
2022/08/10 01:18:02;;;;;;;7.72;4.22;;;;;;;12.89;67.77;98080.44;1728193;82;25973;-76
2022/08/10 01:20:42;;;;;;;5.17;4.40;;;;;;;12.88;67.77;98086.89;1727825;82;25738;-75
2022/08/10 01:23:34;;;;;;;7.70;4.30;;;;;;;12.86;67.79;98084.91;1730763;82;28155;-76
2022/08/10 01:26:24;;;;;;;5.60;4.17;;;;;;;12.84;67.89;98085.63;1728168;82;25605;-75
2022/08/10 01:29:17;;;;;;;6.65;4.28;;;;;;;12.81;67.95;98085.52;1726602;82;25594;-76
2022/08/10 01:31:48;;;;;;;6.50;4.22;;;;;;;12.78;67.96;98090.55;1726014;82;25797;-76
2022/08/10 01:34:23;;;;;;;10.90;4.57;;;;;;;12.77;67.98;98090.23;1732081;82;25707;-76
2022/08/10 01:36:55;;;;;;;5.72;4.08;;;;;;;12.75;68.04;98085.55;1642110;86;26888;-76
2022/08/10 01:39:26;;;;;;;6.95;4.67;;;;;;;12.71;68.03;98089.17;1642194;87;25306;-75
2022/08/10 01:41:57;;;;;;;6.25;4.30;;;;;;;12.68;68.18;98096.91;1642160;87;25785;-75
2022/08/10 01:44:34;;;;;;;6.37;4.33;;;;;;;12.63;68.18;98088.87;1573554;89;26543;-75
2022/08/10 01:49:55;;;;;;;6.00;4.05;;;;;;;12.57;68.21;98088.34;1582197;90;28105;-75
2022/08/10 01:52:25;;;;;;;7.35;4.58;;;;;;;12.55;68.21;98086.38;1579634;90;33238;-76
2022/08/10 01:54:54;;;;;;;8.55;4.97;;;;;;;12.53;68.23;98081.69;1582262;90;25820;-76
2022/08/10 01:57:21;;;;;;;8.08;4.35;;;;;;;12.51;68.23;98086.47;1582262;90;26597;-75
2022/08/10 01:59:50;;;;;;;9.25;4.12;;;;;;;12.49;68.30;98088.55;1582207;90;25657;-76
2022/08/10 02:02:19;;;;;;;7.55;4.55;;;;;;;12.46;68.30;98084.89;1582300;90;27413;-75
2022/08/10 02:04:49;;;;;;;6.65;4.12;;;;;;;12.44;68.39;98080.72;1582065;90;25742;-76
2022/08/10 02:07:23;;;;;;;6.28;4.58;;;;;;;12.41;68.42;98079.28;1581372;90;25865;-75
2022/08/10 02:09:53;;;;;;;5.37;4.00;;;;;;;12.41;68.42;98086.05;1580293;90;26355;-75
2022/08/10 02:12:23;;;;;;;5.53;4.30;;;;;;;12.36;68.40;98084.47;1580397;90;25845;-76
2022/08/10 02:14:54;;;;;;;6.58;3.95;;;;;;;12.30;68.41;98081.25;1580548;90;28170;-75
2022/08/10 02:17:26;;;;;;;6.33;4.00;;;;;;;12.29;68.41;98087.70;1580578;90;25817;-76
2022/08/10 02:19:57;;;;;;;6.20;4.25;;;;;;;12.25;68.47;98079.66;1580593;90;25873;-75
2022/08/10 02:22:26;;;;;;;6.92;3.58;;;;;;;12.24;68.50;98086.11;1580470;90;26402;-76
2022/08/10 02:24:54;;;;;;;8.08;4.15;;;;;;;12.19;68.49;98084.56;1555149;90;25532;-75
2022/08/10 02:27:23;;;;;;;8.08;4.30;;;;;;;12.17;68.51;98087.47;1527318;93;27473;-76
2022/08/10 02:29:52;;;;;;;5.62;3.98;;;;;;;12.16;68.54;98083.61;1538856;92;25784;-76
2022/08/10 02:32:22;;;;;;;5.28;4.20;;;;;;;12.15;68.57;98090.05;1538901;93;25831;-76
2022/08/10 02:34:50;;;;;;;5.92;4.20;;;;;;;12.11;68.61;98084.73;1613028;88;26376;-76
2022/08/10 02:37:21;;;;;;;7.50;4.25;;;;;;;12.10;68.57;98090.66;1613064;88;25760;-75
2022/08/10 02:39:47;;;;;;;6.37;4.30;;;;;;;12.09;68.66;98092.21;1612930;88;27444;-76
2022/08/10 02:42:40;;;;;;;7.25;3.85;;;;;;;12.07;68.64;98088.91;1693299;84;25699;-76
2022/08/10 02:45:15;;;;;;;4.80;3.83;;;;;;;12.06;68.59;98091.29;1687964;84;25720;-76
2022/08/10 02:47:52;;;;;;;5.55;4.50;;;;;;;12.02;68.63;98096.78;1607491;89;26564;-76
2022/08/10 02:50:26;;;;;;;5.50;4.08;;;;;;;11.99;68.65;98099.38;1652845;86;25723;-76
2022/08/10 02:53:07;;;;;;;6.33;4.17;;;;;;;11.96;68.66;98097.06;1653030;86;27692;-75
2022/08/10 02:55:48;;;;;;;4.33;3.62;;;;;;;11.93;68.70;98098.02;1653849;86;26028;-75
2022/08/10 02:58:19;;;;;;;7.45;3.95;;;;;;;11.90;68.75;98094.67;1651917;86;25779;-75
2022/08/10 03:00:51;;;;;;;6.12;4.10;;;;;;;11.87;68.79;98100.48;1652432;86;26572;-76
2022/08/10 03:03:22;;;;;;;5.22;3.55;;;;;;;11.84;68.86;98099.52;1655483;86;25684;-76
2022/08/10 03:05:54;;;;;;;6.67;3.77;;;;;;;11.78;68.75;98097.64;1655255;86;27488;-76
2022/08/10 03:08:25;;;;;;;6.17;4.10;;;;;;;11.75;68.85;98100.74;1630790;85;25801;-76
2022/08/10 03:10:54;;;;;;;6.37;4.22;;;;;;;11.73;68.91;98103.30;1622866;88;25836;-76
2022/08/10 03:13:22;;;;;;;6.70;4.47;;;;;;;11.72;68.92;98102.97;1625804;88;25701;-75
2022/08/10 03:15:50;;;;;;;4.70;4.03;;;;;;;11.71;68.93;98107.55;1625822;88;25929;-75
2022/08/10 03:18:21;;;;;;;4.72;4.08;;;;;;;11.69;68.98;98108.30;1625847;88;27461;-75
2022/08/10 03:20:50;;;;;;;9.05;5.20;;;;;;;11.67;68.96;98113.06;1625923;88;25795;-76
2022/08/10 03:23:21;;;;;;;5.30;4.40;;;;;;;11.64;68.99;98121.57;1626007;88;25880;-75
2022/08/10 03:25:51;;;;;;;5.67;4.17;;;;;;;11.61;68.99;98113.85;1625979;88;25751;-74
2022/08/10 03:28:21;;;;;;;4.60;3.80;;;;;;;11.61;68.97;98117.08;1625692;88;25824;-74
2022/08/10 03:30:48;;;;;;;6.72;4.50;;;;;;;11.58;69.00;98116.98;1604361;88;28060;-76
2022/08/10 03:33:17;;;;;;;6.92;4.70;;;;;;;11.58;69.01;98122.39;1625561;88;43079;-76
2022/08/10 03:35:43;;;;;;;5.17;4.40;;;;;;;11.56;69.01;98121.75;1625815;88;25752;-76
2022/08/10 03:38:10;;;;;;;5.37;3.90;;;;;;;11.51;69.04;98122.85;1625660;88;25808;-76
2022/08/10 03:40:38;;;;;;;5.50;3.70;;;;;;;11.52;69.04;98129.93;1625831;88;25751;-76
2022/08/10 03:43:07;;;;;;;5.25;4.05;;;;;;;11.51;69.06;98128.27;1625884;88;28194;-76
2022/08/10 03:45:34;;;;;;;6.78;4.10;;;;;;;11.47;69.11;98129.71;1742783;81;25659;-75
2022/08/10 03:48:03;;;;;;;8.10;4.45;;;;;;;11.46;69.19;98132.09;1751092;81;25675;-74
2022/08/10 03:50:31;;;;;;;4.97;4.15;;;;;;;11.44;69.25;98137.70;1751130;81;25771;-74
2022/08/10 03:52:58;;;;;;;8.20;4.03;;;;;;;11.43;69.34;98134.67;1750911;81;26716;-74
2022/08/10 03:55:25;;;;;;;8.35;3.92;;;;;;;11.43;69.33;98135.19;1750927;81;28237;-75
2022/08/10 03:57:52;;;;;;;6.30;4.87;;;;;;;11.41;69.38;98139.44;1750919;81;25667;-75
2022/08/10 04:00:18;;;;;;;4.75;4.12;;;;;;;11.40;69.39;98143.17;1751046;80;25517;-75
2022/08/10 04:02:50;;;;;;;7.20;4.33;;;;;;;11.39;69.44;98147.42;1750912;81;26249;-76
2022/08/10 04:05:17;;;;;;;8.53;4.00;;;;;;;11.39;69.46;98143.37;1751284;81;25728;-75
2022/08/10 04:07:44;;;;;;;10.75;4.42;;;;;;;11.38;69.54;98149.80;1760909;80;27319;-76
2022/08/10 04:10:13;;;;;;;6.00;3.83;;;;;;;11.37;69.59;98144.08;1757070;80;25746;-76
2022/08/10 04:12:39;;;;;;;6.12;4.45;;;;;;;11.37;69.60;98146.78;1779674;80;25706;-76
2022/08/10 04:15:07;;;;;;;8.48;4.97;;;;;;;11.37;69.68;98153.54;1779977;80;26312;-76
2022/08/10 04:17:34;;;;;;;5.15;3.83;;;;;;;11.37;69.79;98148.13;1779781;80;25605;-76
2022/08/10 04:20:02;;;;;;;6.50;3.87;;;;;;;11.38;69.80;98153.86;1779824;80;27343;-76
2022/08/10 04:22:29;;;;;;;5.15;4.10;;;;;;;11.39;69.93;98160.94;1779560;80;25607;-76
2022/08/10 04:24:59;;;;;;;6.00;4.83;;;;;;;11.39;70.04;98154.18;1779774;80;25237;-75
2022/08/10 04:27:26;;;;;;;8.18;4.92;;;;;;;11.41;70.11;98156.17;1779743;80;25904;-75
2022/08/10 04:29:54;;;;;;;7.10;5.30;;;;;;;11.42;70.22;98159.20;1779558;80;25686;-75
2022/08/10 04:32:21;;;;;;;9.28;7.28;;;;;;;11.42;70.28;98149.73;1779792;80;28163;-75
2022/08/10 04:34:50;;;;;;;14.68;7.67;;;;;;;11.46;70.34;98164.53;1787007;80;25773;-76
2022/08/10 04:37:20;;;;;;;10.60;7.08;;;;;;;11.47;70.49;98162.96;1753546;81;25715;-74
2022/08/10 04:39:47;;;;;;;11.85;6.05;;;;;;;11.50;70.59;98167.14;1737042;82;26525;-75
2022/08/10 04:42:14;;;;;;;8.50;6.95;;;;;;;11.49;70.70;98162.77;1722089;83;25673;-76
2022/08/10 04:44:42;;;;;;;9.53;6.35;;;;;;;11.53;70.72;98166.75;1737215;82;26803;-75
2022/08/10 04:47:09;;;;;;;12.90;6.65;;;;;;;11.55;70.83;98166.88;1699320;83;25266;-73
2022/08/10 04:49:35;;;;;;;9.53;6.40;;;;;;;11.59;70.84;98159.73;1737336;82;25728;-74
2022/08/10 04:52:02;;;;;;;9.43;6.53;;;;;;;11.62;70.96;98161.49;1722211;83;25752;-75
2022/08/10 04:54:28;;;;;;;10.18;6.53;;;;;;;11.65;70.94;98163.81;1737161;82;25736;-74
2022/08/10 04:56:55;;;;;;;10.10;6.30;;;;;;;11.68;71.08;98160.71;1722185;83;28241;-74
2022/08/10 04:59:21;;;;;;;12.80;6.90;;;;;;;11.70;71.20;98157.30;1737318;82;25781;-74
2022/08/10 05:01:48;;;;;;;11.80;7.28;;;;;;;11.74;71.20;98156.35;1722122;83;25664;-74
2022/08/10 05:04:15;;;;;;;15.08;7.25;;;;;;;11.78;71.20;98154.96;1737382;82;25732;-74
2022/08/10 05:06:41;;;;;;;10.35;6.87;;;;;;;11.83;71.23;98159.27;1722348;83;25696;-74
2022/08/10 05:09:08;;;;;;;11.88;6.58;;;;;;;11.86;71.42;98161.02;1738359;82;27405;-75
2022/08/10 05:11:34;;;;;;;7.08;5.47;;;;;;;11.89;71.43;98163.34;1747375;82;26203;-76
2022/08/10 05:14:01;;;;;;;9.75;5.85;;;;;;;11.93;71.50;98161.59;1747640;82;25698;-78
2022/08/10 05:16:27;;;;;;;11.75;6.42;;;;;;;11.97;71.51;98160.97;1747718;82;25739;-76
2022/08/10 05:18:54;;;;;;;14.73;7.00;;;;;;;12.03;71.60;98167.45;1747659;82;25866;-76
2022/08/10 05:21:20;;;;;;;9.35;6.67;;;;;;;12.07;71.66;98160.09;1741669;82;27360;-78
2022/08/10 05:23:47;;;;;;;14.63;8.00;;;;;;;12.13;71.76;98161.14;1747518;82;25668;-77
2022/08/10 05:26:13;;;;;;;14.95;8.08;;;;;;;12.19;71.73;98168.47;1747430;82;25780;-78
2022/08/10 05:28:40;;;;;;;12.03;7.80;;;;;;;12.24;71.85;98164.09;1747684;82;25694;-76
2022/08/10 05:31:06;;;;;;;17.37;8.28;;;;;;;12.31;72.15;98160.59;1747839;82;25854;-76
2022/08/10 05:33:33;;;;;;;12.75;7.30;;;;;;;12.38;72.52;98167.67;1747446;82;27334;-76
2022/08/10 05:36:00;;;;;;;11.97;7.05;;;;;;;12.43;72.43;98161.66;1747750;82;25456;-75
2022/08/10 05:38:27;;;;;;;10.18;7.20;;;;;;;12.48;72.48;98161.34;1747705;82;25742;-76
2022/08/10 05:40:56;;;;;;;10.13;6.60;;;;;;;12.54;72.67;98158.34;1747771;82;25728;-77
2022/08/10 05:43:23;;;;;;;8.53;6.28;;;;;;;12.58;72.75;98158.23;1747887;82;25704;-77
2022/08/10 05:45:51;;;;;;;10.23;6.35;;;;;;;12.63;72.83;98157.11;1747787;82;27415;-77
2022/08/10 05:48:17;;;;;;;7.30;5.97;;;;;;;12.71;72.88;98152.00;1747707;82;25489;-76
2022/08/10 05:50:44;;;;;;;9.80;6.08;;;;;;;12.77;72.89;98154.73;1747823;82;25756;-76
2022/08/10 05:53:11;;;;;;;8.45;6.03;;;;;;;12.86;72.96;98158.06;1747840;82;25692;-76
2022/08/10 05:55:37;;;;;;;14.68;6.80;;;;;;;12.90;73.07;98157.45;1747806;82;25891;-77
2022/08/10 05:58:04;;;;;;;10.35;7.08;;;;;;;12.97;73.17;98166.92;1747809;82;27359;-76
2022/08/10 06:00:33;;;;;;;11.73;6.75;;;;;;;13.02;73.06;98160.38;1747585;82;25608;-76
2022/08/10 06:03:03;;;;;;;12.53;7.60;;;;;;;13.04;72.95;98159.62;1747735;82;25715;-76
2022/08/10 06:05:34;;;;;;;9.03;6.33;;;;;;;13.07;72.88;98152.44;1747785;82;26483;-76
2022/08/10 06:08:16;;;;;;;8.73;6.03;;;;;;;13.14;73.14;98143.83;1747788;81;25723;-78
2022/08/10 06:10:45;;;;;;;10.98;6.67;;;;;;;13.22;73.30;98147.67;1746461;82;28204;-76
2022/08/10 06:16:00;;;;;;;12.60;6.65;;;;;;;13.38;73.31;98151.00;1747459;82;25672;-77
2022/08/10 06:18:27;;;;;;;9.88;6.70;;;;;;;13.47;73.45;98151.91;1747889;82;25841;-76
2022/08/10 06:20:54;;;;;;;9.18;6.72;;;;;;;13.57;73.31;98158.25;1747824;82;25615;-76
2022/08/10 06:23:25;;;;;;;9.65;6.42;;;;;;;13.67;73.13;98155.41;1747416;82;27440;-77
2022/08/10 06:25:51;;;;;;;9.90;6.12;;;;;;;13.76;73.15;98153.31;1747492;82;25652;-76
2022/08/10 06:28:19;;;;;;;9.55;6.20;;;;;;;13.85;73.08;98155.26;1747735;82;25680;-77
2022/08/10 06:30:48;;;;;;;8.65;5.97;;;;;;;13.96;73.08;98156.78;1747875;81;25750;-77
2022/08/10 06:33:17;;;;;;;11.60;6.97;;;;;;;14.08;73.17;98147.96;1747814;81;25770;-77
2022/08/10 06:35:46;;;;;;;10.23;6.78;;;;;;;14.19;73.16;98152.71;1747772;82;28266;-76
2022/08/10 06:38:14;;;;;;;9.13;6.12;;;;;;;14.30;73.35;98142.52;1722325;82;25546;-76
2022/08/10 06:40:45;;;;;;;8.45;5.75;;;;;;;14.43;73.31;98148.44;1747700;82;25695;-77
2022/08/10 06:43:16;;;;;;;8.80;6.50;;;;;;;14.52;73.15;98141.16;1747758;82;25751;-77
2022/08/10 06:45:52;;;;;;;8.70;6.03;;;;;;;14.63;73.18;98141.83;1748054;81;25659;-79
2022/08/10 06:48:29;;;;;;;8.90;6.40;;;;;;;14.73;72.77;98141.36;1747705;81;28187;-77
2022/08/10 06:51:06;;;;;;;10.78;5.92;;;;;;;14.84;72.56;98139.82;1747351;82;25715;-77
2022/08/10 06:53:40;;;;;;;9.40;5.72;;;;;;;14.97;72.76;98141.87;1670112;85;25800;-77
2022/08/10 06:56:15;;;;;;;9.78;5.87;;;;;;;15.10;73.06;98133.61;1667687;85;25603;-76
2022/08/10 06:58:56;;;;;;;9.63;6.15;;;;;;;15.23;72.70;98134.55;1589600;90;25939;-78
2022/08/10 07:01:28;;;;;;;13.13;6.55;;;;;;;15.34;72.46;98137.38;1537264;93;28202;-76
2022/08/10 07:04:02;;;;;;;12.53;6.33;;;;;;;15.45;72.22;98140.75;1537557;92;25765;-76
2022/08/10 07:06:30;;;;;;;10.28;6.70;;;;;;;15.56;72.25;98132.92;1498546;94;25858;-78
2022/08/10 07:08:59;;;;;;;8.35;6.47;;;;;;;15.70;72.58;98132.53;1494275;95;25805;-77
2022/08/10 07:11:28;;;;;;;15.15;6.70;;;;;;;15.84;72.45;98127.24;1482423;96;25955;-77
2022/08/10 07:13:57;;;;;;;10.78;6.85;;;;;;;15.98;72.11;98131.17;1482682;96;28219;-77
2022/08/10 07:16:27;;;;;;;10.40;5.37;;;;;;;16.07;71.77;98126.54;1482487;96;25990;-76
2022/08/10 07:18:57;;;;;;;7.83;6.30;;;;;;;16.19;71.59;98134.23;1482699;96;25934;-76
2022/08/10 07:21:28;;;;;;;10.68;6.17;;;;;;;16.33;71.29;98127.26;1482687;96;25704;-77
2022/08/10 07:23:55;;;;;;;9.25;5.90;;;;;;;16.44;71.10;98131.39;1482687;96;25798;-77
2022/08/10 07:26:23;;;;;;;10.18;5.30;;;;;;;16.57;70.86;98124.92;1482753;96;28638;-77
2022/08/10 07:28:51;;;;;;;10.03;5.72;;;;;;;16.69;70.50;98116.80;1482673;96;25637;-79
2022/08/10 07:31:20;;;;;;;9.58;5.95;;;;;;;16.82;70.41;98117.44;1482741;96;25932;-77
2022/08/10 07:33:52;;;;;;;10.28;6.08;;;;;;;16.98;70.61;98128.20;1482717;96;25829;-77
2022/08/10 07:36:22;;;;;;;6.70;5.23;;;;;;;17.13;70.11;98118.21;1482884;96;25714;-77
2022/08/10 07:38:52;;;;;;;8.48;5.87;;;;;;;17.31;70.08;98122.71;1439962;99;27578;-78
2022/08/10 07:41:22;;;;;;;12.00;5.20;;;;;;;17.54;69.90;98120.81;1439624;99;26034;-78
2022/08/10 07:43:50;;;;;;;12.07;4.67;;;;;;;17.80;69.39;98122.77;1448730;98;25831;-77
2022/08/10 07:46:21;;;;;;;6.60;4.80;;;;;;;18.14;69.32;98120.48;1459938;98;25854;-77
2022/08/10 07:48:56;;;;;;;6.08;3.95;;;;;;;18.57;69.19;98114.51;1472986;96;25901;-76
2022/08/10 07:51:24;;;;;;;7.58;4.42;;;;;;;19.13;68.67;98117.41;1467606;96;27544;-76
2022/08/10 07:53:54;;;;;;;4.92;3.90;;;;;;;19.70;68.23;98124.88;1489441;94;25865;-75
2022/08/10 07:56:25;;;;;;;8.65;3.47;;;;;;;20.29;67.46;98123.17;1497371;93;25845;-78
2022/08/10 07:59:08;;;;;;;8.03;3.02;;;;;;;20.84;66.56;98115.30;1571111;90;25798;-77
2022/08/10 08:01:40;;;;;;;4.60;3.20;;;;;;;21.85;64.44;98120.23;1584276;89;25859;-78
2022/08/10 08:04:08;;;;;;;7.00;3.00;;;;;;;21.85;64.44;98120.23;1585477;90;27468;-76
2022/08/10 08:06:36;;;;;;;4.60;2.50;;;;;;;22.32;63.85;98115.24;1585018;90;25752;-76
2022/08/10 08:09:05;;;;;;;6.75;3.15;;;;;;;22.75;63.00;98113.14;1589166;89;25789;-76
2022/08/10 08:11:33;;;;;;;7.20;2.80;;;;;;;23.15;62.35;98115.98;1597776;89;25785;-77
2022/08/10 08:14:01;;;;;;;3.72;2.83;;;;;;;23.53;61.77;98111.86;1597910;89;25713;-77
2022/08/10 08:16:29;;;;;;;4.70;3.10;;;;;;;23.84;60.77;98118.13;1598094;89;28277;-78
2022/08/10 08:18:58;;;;;;;4.62;3.17;;;;;;;24.08;59.73;98124.39;1598081;88;25826;-77
2022/08/10 08:21:27;;;;;;;4.70;2.60;;;;;;;24.24;58.96;98121.89;1609189;89;25860;-77
2022/08/10 08:23:55;;;;;;;5.65;2.85;;;;;;;24.46;57.91;98113.23;1609321;89;26510;-79
2022/08/10 08:26:22;;;;;;;4.83;2.62;;;;;;;24.66;57.81;98116.70;1609208;89;25860;-78
2022/08/10 08:28:52;;;;;;;3.40;2.92;;;;;;;24.91;56.90;98118.47;1609345;89;28121;-79
2022/08/10 08:31:20;;;;;;;4.30;2.70;;;;;;;25.22;55.97;98116.35;1625539;87;25839;-77
2022/08/10 08:33:48;;;;;;;4.00;2.47;;;;;;;25.59;55.26;98110.77;1630825;87;25777;-79
2022/08/10 08:36:18;;;;;;;3.60;2.35;;;;;;;25.78;54.31;98107.55;1630931;87;26378;-78
2022/08/10 08:38:46;;;;;;;5.92;2.58;;;;;;;26.11;53.38;98113.53;1630878;87;26528;-78
2022/08/10 08:41:53;;;;;;;5.45;2.22;;;;;;;26.43;52.74;98110.14;1639132;84;27484;-78
2022/08/10 08:44:49;;;;;;;4.75;2.27;;;;;;;26.69;52.44;98106.44;1690995;83;25783;-79
2022/08/10 08:47:47;;;;;;;3.10;2.80;;;;;;;27.01;51.59;98105.73;1690617;84;25804;-77
2022/08/10 08:50:34;;;;;;;2.30;2.10;;;;;;;27.50;51.17;98106.58;1666949;85;25767;-79
2022/08/10 08:53:38;;;;;;;3.90;3.00;;;;;;;27.91;50.11;98097.52;1664239;86;25701;-78
2022/08/10 08:56:20;;;;;;;4.50;2.77;;;;;;;28.15;49.09;98099.53;1667071;86;27412;-77
2022/08/10 08:59:07;;;;;;;5.12;2.70;;;;;;;28.58;48.13;98105.61;1667147;86;25939;-79
2022/08/10 09:01:44;;;;;;;2.90;2.40;;;;;;;28.79;47.62;98102.39;1666795;86;25891;-75
2022/08/10 09:04:38;;;;;;;4.03;2.35;;;;;;;29.12;46.79;98111.33;1664319;85;25790;-76
2022/08/10 09:07:42;;;;;;;2.52;2.25;;;;;;;29.27;45.48;98101.23;1663555;86;25609;-79
2022/08/10 09:10:31;;;;;;;4.75;2.20;;;;;;;28.91;44.45;98097.93;1666844;85;27456;-80
2022/08/10 09:13:15;;;;;;;3.00;2.40;;;;;;;29.05;45.32;98099.84;1667098;86;25841;-78
2022/08/10 09:16:29;;;;;;;3.15;2.33;;;;;;;29.37;44.33;98095.41;1663815;86;25757;-77
2022/08/10 09:19:27;;;;;;;2.50;2.30;;;;;;;29.74;44.12;98099.77;1667285;85;25754;-79
2022/08/10 09:22:21;;;;;;;2.85;2.22;;;;;;;29.87;42.77;98089.68;1658079;85;26870;-76
2022/08/10 09:25:05;;;;;;;4.90;2.30;;;;;;;29.47;41.73;98091.01;1671255;85;27389;-77
2022/08/10 09:27:45;;;;;;;4.00;2.08;;;;;;;29.13;41.46;98094.91;1677716;84;25779;-78
2022/08/10 09:30:17;;;;;;;5.58;2.52;;;;;;;29.23;42.00;98089.09;1593285;90;25776;-76
2022/08/10 09:32:52;;;;;;;2.65;2.40;;;;;;;29.16;41.69;98092.33;1592051;90;25897;-78
2022/08/10 09:35:26;;;;;;;3.17;2.33;;;;;;;29.25;41.16;98085.44;1619302;88;26656;-76
2022/08/10 09:38:03;;;;;;;3.50;2.52;;;;;;;28.98;41.69;98091.95;1613503;88;27455;-77
2022/08/10 09:40:50;;;;;;;4.42;2.30;;;;;;;29.27;41.94;98092.89;1619089;88;25310;-77
2022/08/10 09:43:42;;;;;;;5.22;2.75;;;;;;;29.36;41.05;98090.42;1616073;88;25868;-76
2022/08/10 09:46:35;;;;;;;3.67;2.35;;;;;;;29.25;40.81;98093.21;1619181;88;26618;-76
2022/08/10 09:49:37;;;;;;;3.47;2.12;;;;;;;29.39;41.00;98090.39;1612989;88;25749;-76
2022/08/10 09:52:18;;;;;;;3.12;2.37;;;;;;;29.56;40.53;98078.00;1619175;88;27472;-76
2022/08/10 09:55:10;;;;;;;4.33;2.05;;;;;;;29.19;40.33;98079.77;1617484;88;25901;-76
2022/08/10 09:57:50;;;;;;;5.35;2.62;;;;;;;29.32;39.87;98082.48;1628108;84;25514;-76
2022/08/10 10:00:25;;;;;;;3.15;2.15;;;;;;;29.15;39.39;98078.74;1673035;85;25844;-77
2022/08/10 10:03:18;;;;;;;3.35;2.65;;;;;;;28.91;39.79;98077.66;1673033;84;25782;-76
2022/08/10 10:06:23;;;;;;;3.37;2.12;;;;;;;29.06;39.88;98080.64;1670038;85;27361;-76
2022/08/10 10:09:21;;;;;;;5.50;2.35;;;;;;;29.14;40.16;98075.70;1670582;85;25956;-76
2022/08/10 10:12:28;;;;;;;3.10;2.22;;;;;;;29.20;39.37;98080.02;1672969;85;25778;-76
2022/08/10 10:15:20;;;;;;;4.40;2.25;;;;;;;29.19;39.17;98064.48;1659664;86;25842;-77
2022/08/10 10:18:23;;;;;;;2.12;1.80;;;;;;;29.20;39.02;98063.34;1659408;86;25610;-79
2022/08/10 10:21:04;;;;;;;4.37;1.85;;;;;;;29.38;38.44;98062.33;1657129;86;28175;-78
2022/08/10 10:23:52;;;;;;;3.12;1.65;;;;;;;29.49;37.60;98058.14;1659401;86;25788;-76
2022/08/10 10:26:42;;;;;;;3.05;2.02;;;;;;;29.48;37.92;98059.28;1674647;85;25790;-76
2022/08/10 10:29:23;;;;;;;3.15;2.10;;;;;;;29.64;38.14;98059.13;1684731;85;25924;-76
2022/08/10 10:32:19;;;;;;;3.02;2.22;;;;;;;29.80;37.17;98053.16;1683650;85;25832;-78
2022/08/10 10:35:14;;;;;;;2.67;2.00;;;;;;;29.82;37.16;98055.05;1637148;87;27356;-76
2022/08/10 10:37:42;;;;;;;7.00;2.17;;;;;;;29.96;37.75;98046.03;1637074;87;25795;-77
2022/08/10 10:40:10;;;;;;;4.12;2.70;;;;;;;29.89;36.90;98044.27;1637270;87;25836;-76
2022/08/10 10:42:53;;;;;;;2.58;2.12;;;;;;;30.01;36.98;98048.11;1628966;86;25874;-75
2022/08/10 10:45:45;;;;;;;4.45;2.33;;;;;;;29.98;36.93;98044.57;1648068;86;25853;-76
2022/08/10 10:48:48;;;;;;;2.93;2.40;;;;;;;30.04;37.12;98044.69;1640126;87;28047;-77
2022/08/10 10:51:28;;;;;;;7.78;2.70;;;;;;;30.16;37.20;98049.64;1626505;87;25845;-75
2022/08/10 10:54:22;;;;;;;3.92;2.08;;;;;;;29.86;36.46;98037.95;1648344;87;25759;-77
2022/08/10 10:56:57;;;;;;;3.35;2.27;;;;;;;29.52;36.56;98046.39;1641075;87;25880;-75
2022/08/10 11:00:06;;;;;;;4.10;2.60;;;;;;;29.34;36.65;98039.07;1641555;87;25834;-75
2022/08/10 11:03:01;;;;;;;6.28;2.70;;;;;;;29.23;36.95;98042.66;1641137;87;27398;-76
2022/08/10 11:05:50;;;;;;;3.50;2.60;;;;;;;29.33;37.72;98036.03;1641279;87;25838;-76
2022/08/10 11:08:28;;;;;;;5.67;2.80;;;;;;;29.08;37.90;98039.47;1641110;87;25743;-76
2022/08/10 11:11:06;;;;;;;5.12;3.15;;;;;;;28.96;38.13;98033.09;1650538;82;25894;-75
2022/08/10 11:14:17;;;;;;;7.92;2.95;;;;;;;28.60;37.94;98033.09;1730059;82;25339;-75
2022/08/10 11:16:48;;;;;;;2.80;2.60;;;;;;;28.74;38.43;98028.28;1733532;82;28269;-76
2022/08/10 11:19:31;;;;;;;4.72;2.85;;;;;;;28.53;38.78;98035.45;1733360;82;25741;-75
2022/08/10 11:22:33;;;;;;;2.80;2.55;;;;;;;28.58;38.98;98040.91;1731541;82;25579;-75
2022/08/10 11:25:14;;;;;;;6.78;2.55;;;;;;;28.41;38.73;98035.17;1733595;81;25861;-75
2022/08/10 11:28:28;;;;;;;3.58;2.85;;;;;;;28.38;38.27;98033.84;1733469;82;25742;-75
2022/08/10 11:31:12;;;;;;;4.70;2.40;;;;;;;28.38;38.29;98035.82;1733551;82;27441;-76
2022/08/10 11:33:56;;;;;;;4.17;2.60;;;;;;;28.49;38.60;98033.06;1756357;80;26238;-76
2022/08/10 11:36:58;;;;;;;3.62;2.70;;;;;;;28.72;39.03;98031.97;1702118;84;25719;-75
2022/08/10 11:40:02;;;;;;;3.42;2.25;;;;;;;28.91;38.49;98022.08;1702197;82;25759;-76
2022/08/10 11:42:46;;;;;;;2.87;2.35;;;;;;;28.64;37.64;98027.95;1701582;83;25878;-76
2022/08/10 11:45:30;;;;;;;4.42;2.75;;;;;;;28.52;37.51;98016.58;1595034;88;27384;-76
2022/08/10 11:48:08;;;;;;;2.47;2.10;;;;;;;28.64;37.82;98024.36;1592759;90;25807;-75
2022/08/10 11:50:48;;;;;;;4.25;2.33;;;;;;;28.71;37.63;98020.59;1591449;90;25803;-75
2022/08/10 11:53:37;;;;;;;3.25;2.33;;;;;;;28.81;37.39;98016.22;1591939;88;25841;-76
2022/08/10 11:56:06;;;;;;;4.22;2.27;;;;;;;28.63;37.56;98024.92;1589593;90;25351;-75
2022/08/10 12:01:30;;;;;;;3.77;2.92;;;;;;;28.36;37.95;98021.42;1592619;88;25830;-77
2022/08/10 12:04:06;;;;;;;6.17;2.62;;;;;;;28.21;38.00;98015.07;1592785;90;25763;-76
2022/08/10 12:06:30;;;;;;;2.72;2.25;;;;;;;28.13;38.22;98013.57;1558917;91;26592;-75
2022/08/10 12:08:59;;;;;;;6.85;2.42;;;;;;;28.05;38.57;98005.39;1564106;91;25871;-75
2022/08/10 12:11:30;;;;;;;2.87;2.15;;;;;;;27.99;38.85;98001.66;1550532;91;28208;-75
2022/08/10 12:14:16;;;;;;;3.03;2.27;;;;;;;27.86;38.33;98001.92;1589041;88;25778;-75